sensor_id;sensor_type;location;lat;lon;timestamp;P1;durP1;ratioP1;P2;durP2;ratioP2
3343;SDS011;1685;53.104;8.228;2023-02-01T00:00:12;20.43;;;3.63;;
3343;SDS011;1685;53.104;8.228;2023-02-01T00:02:39;21.20;;;3.70;;
3343;SDS011;1685;53.104;8.228;2023-02-01T00:05:07;21.37;;;4.37;;
3343;SDS011;1685;53.104;8.228;2023-02-01T00:07:34;16.10;;;4.50;;
3343;SDS011;1685;53.104;8.228;2023-02-01T00:10:01;36.10;;;5.60;;
3343;SDS011;1685;53.104;8.228;2023-02-01T00:12:29;13.47;;;3.77;;
3343;SDS011;1685;53.104;8.228;2023-02-01T00:14:56;17.17;;;4.30;;
3343;SDS011;1685;53.104;8.228;2023-02-01T00:17:24;23.03;;;4.10;;
3343;SDS011;1685;53.104;8.228;2023-02-01T00:19:51;17.33;;;4.30;;
3343;SDS011;1685;53.104;8.228;2023-02-01T00:22:18;30.20;;;5.77;;
3343;SDS011;1685;53.104;8.228;2023-02-01T00:24:45;19.07;;;4.23;;
3343;SDS011;1685;53.104;8.228;2023-02-01T00:27:12;29.00;;;4.97;;
3343;SDS011;1685;53.104;8.228;2023-02-01T00:29:42;21.97;;;4.33;;
3343;SDS011;1685;53.104;8.228;2023-02-01T00:32:10;18.70;;;4.87;;
3343;SDS011;1685;53.104;8.228;2023-02-01T00:34:38;20.07;;;4.47;;
3343;SDS011;1685;53.104;8.228;2023-02-01T00:37:05;25.90;;;3.80;;
3343;SDS011;1685;53.104;8.228;2023-02-01T00:39:32;13.30;;;3.17;;
3343;SDS011;1685;53.104;8.228;2023-02-01T00:41:59;17.70;;;4.73;;
3343;SDS011;1685;53.104;8.228;2023-02-01T00:44:26;27.23;;;4.43;;
3343;SDS011;1685;53.104;8.228;2023-02-01T00:46:58;22.13;;;4.47;;
3343;SDS011;1685;53.104;8.228;2023-02-01T00:49:25;29.93;;;3.87;;
3343;SDS011;1685;53.104;8.228;2023-02-01T00:51:53;17.57;;;3.67;;
3343;SDS011;1685;53.104;8.228;2023-02-01T00:54:20;31.80;;;4.20;;
3343;SDS011;1685;53.104;8.228;2023-02-01T00:56:47;19.33;;;4.60;;
3343;SDS011;1685;53.104;8.228;2023-02-01T00:59:14;25.87;;;4.23;;
3343;SDS011;1685;53.104;8.228;2023-02-01T01:01:41;18.40;;;4.50;;
3343;SDS011;1685;53.104;8.228;2023-02-01T01:04:08;34.67;;;5.57;;
3343;SDS011;1685;53.104;8.228;2023-02-01T01:06:35;33.47;;;4.60;;
3343;SDS011;1685;53.104;8.228;2023-02-01T01:09:04;27.77;;;3.87;;
3343;SDS011;1685;53.104;8.228;2023-02-01T01:11:33;15.97;;;3.83;;
3343;SDS011;1685;53.104;8.228;2023-02-01T01:14:01;28.90;;;5.07;;
3343;SDS011;1685;53.104;8.228;2023-02-01T01:16:30;31.60;;;5.37;;
3343;SDS011;1685;53.104;8.228;2023-02-01T01:18:57;17.23;;;4.40;;
3343;SDS011;1685;53.104;8.228;2023-02-01T01:21:24;24.93;;;4.17;;
3343;SDS011;1685;53.104;8.228;2023-02-01T01:23:52;21.73;;;4.03;;
3343;SDS011;1685;53.104;8.228;2023-02-01T01:26:21;23.53;;;4.27;;
3343;SDS011;1685;53.104;8.228;2023-02-01T01:28:49;17.17;;;3.80;;
3343;SDS011;1685;53.104;8.228;2023-02-01T01:31:17;26.57;;;4.23;;
3343;SDS011;1685;53.104;8.228;2023-02-01T01:33:46;20.20;;;4.30;;
3343;SDS011;1685;53.104;8.228;2023-02-01T01:36:14;25.00;;;4.20;;
3343;SDS011;1685;53.104;8.228;2023-02-01T01:38:41;14.77;;;3.83;;
3343;SDS011;1685;53.104;8.228;2023-02-01T01:41:11;23.57;;;4.07;;
3343;SDS011;1685;53.104;8.228;2023-02-01T01:43:48;18.73;;;4.30;;
3343;SDS011;1685;53.104;8.228;2023-02-01T01:46:17;21.87;;;4.43;;
3343;SDS011;1685;53.104;8.228;2023-02-01T01:48:45;23.40;;;5.13;;
3343;SDS011;1685;53.104;8.228;2023-02-01T01:51:14;12.80;;;3.53;;
3343;SDS011;1685;53.104;8.228;2023-02-01T01:53:47;20.33;;;4.13;;
3343;SDS011;1685;53.104;8.228;2023-02-01T01:56:16;20.30;;;3.97;;
3343;SDS011;1685;53.104;8.228;2023-02-01T01:58:43;28.37;;;4.57;;
3343;SDS011;1685;53.104;8.228;2023-02-01T02:01:11;19.07;;;4.23;;
3343;SDS011;1685;53.104;8.228;2023-02-01T02:03:39;27.20;;;4.73;;
3343;SDS011;1685;53.104;8.228;2023-02-01T02:06:10;27.20;;;4.97;;
3343;SDS011;1685;53.104;8.228;2023-02-01T02:08:41;23.67;;;4.87;;
3343;SDS011;1685;53.104;8.228;2023-02-01T02:11:09;15.33;;;4.10;;
3343;SDS011;1685;53.104;8.228;2023-02-01T02:13:41;22.07;;;4.47;;
3343;SDS011;1685;53.104;8.228;2023-02-01T02:16:16;31.47;;;5.30;;
3343;SDS011;1685;53.104;8.228;2023-02-01T02:18:53;27.00;;;4.30;;
3343;SDS011;1685;53.104;8.228;2023-02-01T02:21:41;19.23;;;3.67;;
3343;SDS011;1685;53.104;8.228;2023-02-01T02:24:24;19.47;;;3.70;;
3343;SDS011;1685;53.104;8.228;2023-02-01T02:27:07;21.07;;;4.13;;
3343;SDS011;1685;53.104;8.228;2023-02-01T02:30:04;25.87;;;4.50;;
3343;SDS011;1685;53.104;8.228;2023-02-01T02:32:59;22.07;;;4.27;;
3343;SDS011;1685;53.104;8.228;2023-02-01T02:35:50;20.20;;;3.80;;
3343;SDS011;1685;53.104;8.228;2023-02-01T02:38:27;27.03;;;4.03;;
3343;SDS011;1685;53.104;8.228;2023-02-01T02:41:00;21.00;;;3.50;;
3343;SDS011;1685;53.104;8.228;2023-02-01T02:43:35;20.87;;;4.17;;
3343;SDS011;1685;53.104;8.228;2023-02-01T02:46:28;22.13;;;4.23;;
3343;SDS011;1685;53.104;8.228;2023-02-01T02:49:20;16.30;;;4.00;;
3343;SDS011;1685;53.104;8.228;2023-02-01T02:51:52;17.87;;;3.90;;
3343;SDS011;1685;53.104;8.228;2023-02-01T02:54:40;35.27;;;5.93;;
3343;SDS011;1685;53.104;8.228;2023-02-01T02:57:17;31.37;;;5.30;;
3343;SDS011;1685;53.104;8.228;2023-02-01T03:00:04;18.70;;;5.03;;
3343;SDS011;1685;53.104;8.228;2023-02-01T03:02:52;24.60;;;5.47;;
3343;SDS011;1685;53.104;8.228;2023-02-01T03:05:40;18.37;;;5.93;;
3343;SDS011;1685;53.104;8.228;2023-02-01T03:08:14;25.60;;;4.23;;
3343;SDS011;1685;53.104;8.228;2023-02-01T03:10:44;18.73;;;3.70;;
3343;SDS011;1685;53.104;8.228;2023-02-01T03:13:18;11.33;;;3.60;;
3343;SDS011;1685;53.104;8.228;2023-02-01T03:15:53;20.63;;;4.43;;
3343;SDS011;1685;53.104;8.228;2023-02-01T03:18:26;16.57;;;3.50;;
3343;SDS011;1685;53.104;8.228;2023-02-01T03:20:59;35.60;;;5.40;;
3343;SDS011;1685;53.104;8.228;2023-02-01T03:23:31;15.17;;;3.93;;
3343;SDS011;1685;53.104;8.228;2023-02-01T03:26:02;11.03;;;3.27;;
3343;SDS011;1685;53.104;8.228;2023-02-01T03:28:32;22.60;;;4.40;;
3343;SDS011;1685;53.104;8.228;2023-02-01T03:31:00;15.70;;;4.13;;
3343;SDS011;1685;53.104;8.228;2023-02-01T03:33:28;11.47;;;2.93;;
3343;SDS011;1685;53.104;8.228;2023-02-01T03:36:01;18.97;;;3.30;;
3343;SDS011;1685;53.104;8.228;2023-02-01T03:38:37;17.37;;;4.63;;
3343;SDS011;1685;53.104;8.228;2023-02-01T03:41:08;22.80;;;4.33;;
3343;SDS011;1685;53.104;8.228;2023-02-01T03:43:39;18.23;;;3.60;;
3343;SDS011;1685;53.104;8.228;2023-02-01T03:46:15;19.67;;;3.80;;
3343;SDS011;1685;53.104;8.228;2023-02-01T03:48:46;24.80;;;3.80;;
3343;SDS011;1685;53.104;8.228;2023-02-01T03:51:14;15.67;;;4.47;;
3343;SDS011;1685;53.104;8.228;2023-02-01T03:53:44;14.70;;;3.60;;
3343;SDS011;1685;53.104;8.228;2023-02-01T03:56:13;15.13;;;4.00;;
3343;SDS011;1685;53.104;8.228;2023-02-01T03:58:42;22.80;;;4.20;;
3343;SDS011;1685;53.104;8.228;2023-02-01T04:01:23;17.10;;;4.77;;
3343;SDS011;1685;53.104;8.228;2023-02-01T04:03:50;18.97;;;3.33;;
3343;SDS011;1685;53.104;8.228;2023-02-01T04:06:17;16.43;;;3.90;;
3343;SDS011;1685;53.104;8.228;2023-02-01T04:08:45;18.70;;;4.93;;
3343;SDS011;1685;53.104;8.228;2023-02-01T04:11:12;33.53;;;4.83;;
3343;SDS011;1685;53.104;8.228;2023-02-01T04:13:39;18.87;;;4.10;;
3343;SDS011;1685;53.104;8.228;2023-02-01T04:16:06;21.97;;;4.43;;
3343;SDS011;1685;53.104;8.228;2023-02-01T04:18:33;32.10;;;4.97;;
3343;SDS011;1685;53.104;8.228;2023-02-01T04:21:00;21.63;;;3.53;;
3343;SDS011;1685;53.104;8.228;2023-02-01T04:23:27;21.13;;;4.70;;
3343;SDS011;1685;53.104;8.228;2023-02-01T04:25:59;18.30;;;4.47;;
3343;SDS011;1685;53.104;8.228;2023-02-01T04:28:27;41.03;;;4.57;;
3343;SDS011;1685;53.104;8.228;2023-02-01T04:30:54;20.80;;;3.77;;
3343;SDS011;1685;53.104;8.228;2023-02-01T04:33:21;25.50;;;3.70;;
3343;SDS011;1685;53.104;8.228;2023-02-01T04:35:48;23.53;;;3.87;;
3343;SDS011;1685;53.104;8.228;2023-02-01T04:38:15;21.90;;;4.50;;
3343;SDS011;1685;53.104;8.228;2023-02-01T04:40:41;19.40;;;4.37;;
3343;SDS011;1685;53.104;8.228;2023-02-01T04:43:10;30.00;;;5.10;;
3343;SDS011;1685;53.104;8.228;2023-02-01T04:45:36;20.00;;;4.50;;
3343;SDS011;1685;53.104;8.228;2023-02-01T04:48:03;21.83;;;4.33;;
3343;SDS011;1685;53.104;8.228;2023-02-01T04:50:30;23.93;;;4.47;;
3343;SDS011;1685;53.104;8.228;2023-02-01T04:52:57;17.43;;;5.20;;
3343;SDS011;1685;53.104;8.228;2023-02-01T04:55:24;23.90;;;5.17;;
3343;SDS011;1685;53.104;8.228;2023-02-01T04:57:51;35.97;;;5.00;;
3343;SDS011;1685;53.104;8.228;2023-02-01T05:00:19;20.70;;;4.13;;
3343;SDS011;1685;53.104;8.228;2023-02-01T05:02:46;26.80;;;4.40;;
3343;SDS011;1685;53.104;8.228;2023-02-01T05:05:13;15.53;;;3.93;;
3343;SDS011;1685;53.104;8.228;2023-02-01T05:07:40;24.30;;;5.23;;
3343;SDS011;1685;53.104;8.228;2023-02-01T05:10:08;23.23;;;5.13;;
3343;SDS011;1685;53.104;8.228;2023-02-01T05:12:35;20.20;;;3.60;;
3343;SDS011;1685;53.104;8.228;2023-02-01T05:15:21;17.23;;;3.40;;
3343;SDS011;1685;53.104;8.228;2023-02-01T05:17:47;23.33;;;4.57;;
3343;SDS011;1685;53.104;8.228;2023-02-01T05:20:15;12.20;;;3.70;;
3343;SDS011;1685;53.104;8.228;2023-02-01T05:22:42;17.17;;;3.37;;
3343;SDS011;1685;53.104;8.228;2023-02-01T05:25:08;10.83;;;3.53;;
3343;SDS011;1685;53.104;8.228;2023-02-01T05:27:35;12.10;;;3.40;;
3343;SDS011;1685;53.104;8.228;2023-02-01T05:30:02;13.33;;;3.80;;
3343;SDS011;1685;53.104;8.228;2023-02-01T05:32:31;14.77;;;3.90;;
3343;SDS011;1685;53.104;8.228;2023-02-01T05:34:58;19.43;;;4.80;;
3343;SDS011;1685;53.104;8.228;2023-02-01T05:37:25;21.37;;;3.90;;
3343;SDS011;1685;53.104;8.228;2023-02-01T05:39:52;22.20;;;5.30;;
3343;SDS011;1685;53.104;8.228;2023-02-01T05:42:19;15.63;;;4.70;;
3343;SDS011;1685;53.104;8.228;2023-02-01T05:44:46;15.80;;;4.33;;
3343;SDS011;1685;53.104;8.228;2023-02-01T05:47:13;17.13;;;4.73;;
3343;SDS011;1685;53.104;8.228;2023-02-01T05:49:41;16.23;;;4.17;;
3343;SDS011;1685;53.104;8.228;2023-02-01T05:52:08;15.80;;;4.00;;
3343;SDS011;1685;53.104;8.228;2023-02-01T05:54:35;23.90;;;5.13;;
3343;SDS011;1685;53.104;8.228;2023-02-01T05:57:02;21.17;;;5.63;;
3343;SDS011;1685;53.104;8.228;2023-02-01T05:59:29;29.50;;;5.57;;
3343;SDS011;1685;53.104;8.228;2023-02-01T06:01:55;15.70;;;4.40;;
3343;SDS011;1685;53.104;8.228;2023-02-01T06:04:22;11.73;;;3.80;;
3343;SDS011;1685;53.104;8.228;2023-02-01T06:06:50;25.10;;;4.57;;
3343;SDS011;1685;53.104;8.228;2023-02-01T06:09:17;12.50;;;5.73;;
3343;SDS011;1685;53.104;8.228;2023-02-01T06:11:44;20.70;;;4.53;;
3343;SDS011;1685;53.104;8.228;2023-02-01T06:14:11;27.23;;;4.10;;
3343;SDS011;1685;53.104;8.228;2023-02-01T06:16:37;14.57;;;3.60;;
3343;SDS011;1685;53.104;8.228;2023-02-01T06:19:04;12.10;;;3.80;;
3343;SDS011;1685;53.104;8.228;2023-02-01T06:21:31;16.90;;;3.00;;
3343;SDS011;1685;53.104;8.228;2023-02-01T06:24:00;7.83;;;2.73;;
3343;SDS011;1685;53.104;8.228;2023-02-01T06:26:27;8.57;;;2.57;;
3343;SDS011;1685;53.104;8.228;2023-02-01T06:28:54;15.57;;;2.90;;
3343;SDS011;1685;53.104;8.228;2023-02-01T06:31:21;9.20;;;3.00;;
3343;SDS011;1685;53.104;8.228;2023-02-01T06:33:48;19.27;;;4.10;;
3343;SDS011;1685;53.104;8.228;2023-02-01T06:36:15;21.03;;;4.80;;
3343;SDS011;1685;53.104;8.228;2023-02-01T06:38:43;23.93;;;3.83;;
3343;SDS011;1685;53.104;8.228;2023-02-01T06:41:11;19.70;;;4.10;;
3343;SDS011;1685;53.104;8.228;2023-02-01T06:43:38;21.37;;;4.13;;
3343;SDS011;1685;53.104;8.228;2023-02-01T06:46:06;16.57;;;4.63;;
3343;SDS011;1685;53.104;8.228;2023-02-01T06:48:35;23.13;;;4.50;;
3343;SDS011;1685;53.104;8.228;2023-02-01T06:51:02;20.83;;;5.40;;
3343;SDS011;1685;53.104;8.228;2023-02-01T06:53:30;27.30;;;4.37;;
3343;SDS011;1685;53.104;8.228;2023-02-01T06:55:57;22.63;;;5.73;;
3343;SDS011;1685;53.104;8.228;2023-02-01T06:58:29;22.87;;;6.10;;
3343;SDS011;1685;53.104;8.228;2023-02-01T07:00:56;18.00;;;4.40;;
3343;SDS011;1685;53.104;8.228;2023-02-01T07:03:23;30.43;;;4.20;;
3343;SDS011;1685;53.104;8.228;2023-02-01T07:05:55;19.37;;;5.17;;
3343;SDS011;1685;53.104;8.228;2023-02-01T07:08:24;25.87;;;4.20;;
3343;SDS011;1685;53.104;8.228;2023-02-01T07:10:51;22.17;;;5.37;;
3343;SDS011;1685;53.104;8.228;2023-02-01T07:13:18;23.07;;;4.50;;
3343;SDS011;1685;53.104;8.228;2023-02-01T07:15:46;26.60;;;3.67;;
3343;SDS011;1685;53.104;8.228;2023-02-01T07:18:13;14.20;;;3.90;;
3343;SDS011;1685;53.104;8.228;2023-02-01T07:20:42;20.40;;;5.33;;
3343;SDS011;1685;53.104;8.228;2023-02-01T07:23:09;18.60;;;4.50;;
3343;SDS011;1685;53.104;8.228;2023-02-01T07:25:36;17.90;;;3.70;;
3343;SDS011;1685;53.104;8.228;2023-02-01T07:28:03;19.30;;;3.13;;
3343;SDS011;1685;53.104;8.228;2023-02-01T07:30:30;14.53;;;3.57;;
3343;SDS011;1685;53.104;8.228;2023-02-01T07:32:58;36.40;;;4.63;;
3343;SDS011;1685;53.104;8.228;2023-02-01T07:35:26;15.93;;;4.70;;
3343;SDS011;1685;53.104;8.228;2023-02-01T07:37:53;23.43;;;4.67;;
3343;SDS011;1685;53.104;8.228;2023-02-01T07:40:20;28.73;;;5.00;;
3343;SDS011;1685;53.104;8.228;2023-02-01T07:42:53;26.40;;;5.43;;
3343;SDS011;1685;53.104;8.228;2023-02-01T07:45:20;17.07;;;3.10;;
3343;SDS011;1685;53.104;8.228;2023-02-01T07:47:47;22.37;;;5.93;;
3343;SDS011;1685;53.104;8.228;2023-02-01T07:50:16;20.13;;;4.43;;
3343;SDS011;1685;53.104;8.228;2023-02-01T07:52:43;14.97;;;4.20;;
3343;SDS011;1685;53.104;8.228;2023-02-01T07:55:10;21.73;;;4.80;;
3343;SDS011;1685;53.104;8.228;2023-02-01T07:57:37;17.63;;;3.53;;
3343;SDS011;1685;53.104;8.228;2023-02-01T08:00:04;19.13;;;4.00;;
3343;SDS011;1685;53.104;8.228;2023-02-01T08:02:49;20.50;;;3.97;;
3343;SDS011;1685;53.104;8.228;2023-02-01T08:05:17;23.00;;;3.97;;
3343;SDS011;1685;53.104;8.228;2023-02-01T08:07:44;25.80;;;4.83;;
3343;SDS011;1685;53.104;8.228;2023-02-01T08:10:15;22.40;;;4.63;;
3343;SDS011;1685;53.104;8.228;2023-02-01T08:12:45;19.33;;;3.83;;
3343;SDS011;1685;53.104;8.228;2023-02-01T08:15:13;16.80;;;4.43;;
3343;SDS011;1685;53.104;8.228;2023-02-01T08:17:45;11.90;;;3.70;;
3343;SDS011;1685;53.104;8.228;2023-02-01T08:20:13;14.50;;;4.40;;
3343;SDS011;1685;53.104;8.228;2023-02-01T08:22:42;20.53;;;5.57;;
3343;SDS011;1685;53.104;8.228;2023-02-01T08:25:09;18.00;;;5.37;;
3343;SDS011;1685;53.104;8.228;2023-02-01T08:27:37;18.03;;;3.70;;
3343;SDS011;1685;53.104;8.228;2023-02-01T08:30:05;32.40;;;4.40;;
3343;SDS011;1685;53.104;8.228;2023-02-01T08:32:33;26.10;;;3.50;;
3343;SDS011;1685;53.104;8.228;2023-02-01T08:35:00;19.37;;;3.20;;
3343;SDS011;1685;53.104;8.228;2023-02-01T08:37:27;27.77;;;5.20;;
3343;SDS011;1685;53.104;8.228;2023-02-01T08:39:56;29.00;;;5.00;;
3343;SDS011;1685;53.104;8.228;2023-02-01T08:42:22;12.33;;;3.30;;
3343;SDS011;1685;53.104;8.228;2023-02-01T08:45:08;21.47;;;5.80;;
3343;SDS011;1685;53.104;8.228;2023-02-01T08:47:35;13.33;;;3.77;;
3343;SDS011;1685;53.104;8.228;2023-02-01T08:50:02;18.07;;;3.83;;
3343;SDS011;1685;53.104;8.228;2023-02-01T08:52:29;18.27;;;4.07;;
3343;SDS011;1685;53.104;8.228;2023-02-01T08:54:58;24.87;;;4.53;;
3343;SDS011;1685;53.104;8.228;2023-02-01T08:57:24;24.17;;;5.20;;
3343;SDS011;1685;53.104;8.228;2023-02-01T08:59:51;19.23;;;4.10;;
3343;SDS011;1685;53.104;8.228;2023-02-01T09:02:18;20.80;;;3.97;;
3343;SDS011;1685;53.104;8.228;2023-02-01T09:04:46;20.13;;;3.38;;
3343;SDS011;1685;53.104;8.228;2023-02-01T09:07:13;21.57;;;4.00;;
3343;SDS011;1685;53.104;8.228;2023-02-01T09:09:41;21.60;;;4.00;;
3343;SDS011;1685;53.104;8.228;2023-02-01T09:12:10;18.17;;;3.00;;
3343;SDS011;1685;53.104;8.228;2023-02-01T09:14:37;19.52;;;3.20;;
3343;SDS011;1685;53.104;8.228;2023-02-01T09:17:04;15.10;;;3.63;;
3343;SDS011;1685;53.104;8.228;2023-02-01T09:19:31;9.33;;;3.83;;
3343;SDS011;1685;53.104;8.228;2023-02-01T09:21:58;14.40;;;3.93;;
3343;SDS011;1685;53.104;8.228;2023-02-01T09:24:25;16.23;;;4.30;;
3343;SDS011;1685;53.104;8.228;2023-02-01T09:26:53;16.03;;;4.03;;
3343;SDS011;1685;53.104;8.228;2023-02-01T09:29:21;14.75;;;3.60;;
3343;SDS011;1685;53.104;8.228;2023-02-01T09:31:48;21.37;;;4.23;;
3343;SDS011;1685;53.104;8.228;2023-02-01T09:34:15;25.97;;;4.23;;
3343;SDS011;1685;53.104;8.228;2023-02-01T09:36:42;22.33;;;4.00;;
3343;SDS011;1685;53.104;8.228;2023-02-01T09:39:09;20.80;;;4.57;;
3343;SDS011;1685;53.104;8.228;2023-02-01T09:41:40;20.73;;;4.50;;
3343;SDS011;1685;53.104;8.228;2023-02-01T09:44:18;12.83;;;3.67;;
3343;SDS011;1685;53.104;8.228;2023-02-01T09:46:57;19.57;;;3.73;;
3343;SDS011;1685;53.104;8.228;2023-02-01T09:49:26;21.50;;;4.80;;
3343;SDS011;1685;53.104;8.228;2023-02-01T09:51:56;11.30;;;3.50;;
3343;SDS011;1685;53.104;8.228;2023-02-01T09:54:24;22.93;;;5.00;;
3343;SDS011;1685;53.104;8.228;2023-02-01T09:56:53;15.83;;;3.17;;
3343;SDS011;1685;53.104;8.228;2023-02-01T09:59:31;37.43;;;4.53;;
3343;SDS011;1685;53.104;8.228;2023-02-01T10:02:04;15.70;;;3.90;;
3343;SDS011;1685;53.104;8.228;2023-02-01T10:04:38;21.27;;;4.53;;
3343;SDS011;1685;53.104;8.228;2023-02-01T10:07:08;24.53;;;3.83;;
3343;SDS011;1685;53.104;8.228;2023-02-01T10:09:49;29.03;;;4.80;;
3343;SDS011;1685;53.104;8.228;2023-02-01T10:12:29;16.73;;;3.00;;
3343;SDS011;1685;53.104;8.228;2023-02-01T10:15:22;20.60;;;3.58;;
3343;SDS011;1685;53.104;8.228;2023-02-01T10:18:00;18.83;;;4.10;;
3343;SDS011;1685;53.104;8.228;2023-02-01T10:20:49;15.50;;;3.30;;
3343;SDS011;1685;53.104;8.228;2023-02-01T10:23:27;16.20;;;4.83;;
3343;SDS011;1685;53.104;8.228;2023-02-01T10:26:15;17.20;;;3.80;;
3343;SDS011;1685;53.104;8.228;2023-02-01T10:28:46;19.10;;;3.73;;
3343;SDS011;1685;53.104;8.228;2023-02-01T10:31:18;30.23;;;4.57;;
3343;SDS011;1685;53.104;8.228;2023-02-01T10:33:47;12.20;;;3.67;;
3343;SDS011;1685;53.104;8.228;2023-02-01T10:36:19;18.10;;;4.00;;
3343;SDS011;1685;53.104;8.228;2023-02-01T10:38:49;16.97;;;3.30;;
3343;SDS011;1685;53.104;8.228;2023-02-01T10:41:16;14.77;;;2.97;;
3343;SDS011;1685;53.104;8.228;2023-02-01T10:43:50;16.03;;;3.70;;
3343;SDS011;1685;53.104;8.228;2023-02-01T10:46:23;31.83;;;4.63;;
3343;SDS011;1685;53.104;8.228;2023-02-01T10:48:50;11.73;;;3.70;;
3343;SDS011;1685;53.104;8.228;2023-02-01T10:51:21;14.43;;;4.17;;
3343;SDS011;1685;53.104;8.228;2023-02-01T10:53:52;22.13;;;4.47;;
3343;SDS011;1685;53.104;8.228;2023-02-01T10:56:23;22.30;;;4.00;;
3343;SDS011;1685;53.104;8.228;2023-02-01T10:58:50;16.50;;;3.83;;
3343;SDS011;1685;53.104;8.228;2023-02-01T11:01:19;18.00;;;4.43;;
3343;SDS011;1685;53.104;8.228;2023-02-01T11:03:52;27.57;;;4.53;;
3343;SDS011;1685;53.104;8.228;2023-02-01T11:06:26;19.83;;;4.53;;
3343;SDS011;1685;53.104;8.228;2023-02-01T11:08:54;13.03;;;3.50;;
3343;SDS011;1685;53.104;8.228;2023-02-01T11:11:23;18.53;;;3.80;;
3343;SDS011;1685;53.104;8.228;2023-02-01T11:13:51;14.77;;;3.10;;
3343;SDS011;1685;53.104;8.228;2023-02-01T11:16:20;12.40;;;3.30;;
3343;SDS011;1685;53.104;8.228;2023-02-01T11:18:52;10.77;;;2.50;;
3343;SDS011;1685;53.104;8.228;2023-02-01T11:21:20;17.87;;;4.50;;
3343;SDS011;1685;53.104;8.228;2023-02-01T11:23:48;14.77;;;5.60;;
3343;SDS011;1685;53.104;8.228;2023-02-01T11:26:19;10.13;;;2.70;;
3343;SDS011;1685;53.104;8.228;2023-02-01T11:28:50;12.30;;;2.40;;
3343;SDS011;1685;53.104;8.228;2023-02-01T11:31:19;7.03;;;3.20;;
3343;SDS011;1685;53.104;8.228;2023-02-01T11:33:49;4.97;;;2.80;;
3343;SDS011;1685;53.104;8.228;2023-02-01T11:36:20;12.40;;;2.93;;
3343;SDS011;1685;53.104;8.228;2023-02-01T11:38:52;12.17;;;3.33;;
3343;SDS011;1685;53.104;8.228;2023-02-01T11:41:21;8.97;;;3.17;;
3343;SDS011;1685;53.104;8.228;2023-02-01T11:43:51;8.20;;;3.43;;
3343;SDS011;1685;53.104;8.228;2023-02-01T11:46:21;19.67;;;4.33;;
3343;SDS011;1685;53.104;8.228;2023-02-01T11:48:51;10.83;;;2.93;;
3343;SDS011;1685;53.104;8.228;2023-02-01T11:51:23;11.00;;;3.17;;
3343;SDS011;1685;53.104;8.228;2023-02-01T11:54:09;9.43;;;3.50;;
3343;SDS011;1685;53.104;8.228;2023-02-01T11:56:50;12.10;;;2.77;;
3343;SDS011;1685;53.104;8.228;2023-02-01T11:59:28;6.60;;;2.27;;
3343;SDS011;1685;53.104;8.228;2023-02-01T12:02:21;8.23;;;3.00;;
3343;SDS011;1685;53.104;8.228;2023-02-01T12:05:10;4.20;;;1.40;;
3343;SDS011;1685;53.104;8.228;2023-02-01T12:07:54;1.07;;;1.07;;
3343;SDS011;1685;53.104;8.228;2023-02-01T12:10:34;2.70;;;0.90;;
3343;SDS011;1685;53.104;8.228;2023-02-01T12:13:12;1.77;;;1.67;;
3343;SDS011;1685;53.104;8.228;2023-02-01T12:15:56;1.30;;;1.20;;
3343;SDS011;1685;53.104;8.228;2023-02-01T12:18:34;2.00;;;1.27;;
3343;SDS011;1685;53.104;8.228;2023-02-01T12:21:21;1.50;;;1.40;;
3343;SDS011;1685;53.104;8.228;2023-02-01T12:24:01;2.33;;;2.10;;
3343;SDS011;1685;53.104;8.228;2023-02-01T12:26:45;2.20;;;1.50;;
3343;SDS011;1685;53.104;8.228;2023-02-01T12:29:23;1.10;;;1.10;;
3343;SDS011;1685;53.104;8.228;2023-02-01T12:32:11;2.70;;;1.13;;
3343;SDS011;1685;53.104;8.228;2023-02-01T12:35:01;5.23;;;1.70;;
3343;SDS011;1685;53.104;8.228;2023-02-01T12:37:56;1.83;;;1.70;;
3343;SDS011;1685;53.104;8.228;2023-02-01T12:40:45;1.70;;;1.43;;
3343;SDS011;1685;53.104;8.228;2023-02-01T12:43:24;7.93;;;1.93;;
3343;SDS011;1685;53.104;8.228;2023-02-01T12:45:59;1.67;;;1.57;;
3343;SDS011;1685;53.104;8.228;2023-02-01T12:48:30;0.80;;;0.80;;
3343;SDS011;1685;53.104;8.228;2023-02-01T12:51:01;1.40;;;1.30;;
3343;SDS011;1685;53.104;8.228;2023-02-01T12:53:33;2.20;;;1.00;;
3343;SDS011;1685;53.104;8.228;2023-02-01T12:56:12;1.27;;;1.20;;
3343;SDS011;1685;53.104;8.228;2023-02-01T12:58:43;0.97;;;0.97;;
3343;SDS011;1685;53.104;8.228;2023-02-01T13:01:14;5.70;;;1.40;;
3343;SDS011;1685;53.104;8.228;2023-02-01T13:03:50;2.03;;;1.30;;
3343;SDS011;1685;53.104;8.228;2023-02-01T13:06:22;6.83;;;1.10;;
3343;SDS011;1685;53.104;8.228;2023-02-01T13:08:54;1.30;;;1.20;;
3343;SDS011;1685;53.104;8.228;2023-02-01T13:11:29;1.80;;;1.20;;
3343;SDS011;1685;53.104;8.228;2023-02-01T13:14:00;1.53;;;1.43;;
3343;SDS011;1685;53.104;8.228;2023-02-01T13:16:30;2.80;;;1.27;;
3343;SDS011;1685;53.104;8.228;2023-02-01T13:19:02;5.87;;;1.30;;
3343;SDS011;1685;53.104;8.228;2023-02-01T13:21:36;2.40;;;0.93;;
3343;SDS011;1685;53.104;8.228;2023-02-01T13:24:07;2.40;;;1.30;;
3343;SDS011;1685;53.104;8.228;2023-02-01T13:26:53;2.23;;;1.20;;
3343;SDS011;1685;53.104;8.228;2023-02-01T13:29:21;4.53;;;1.47;;
3343;SDS011;1685;53.104;8.228;2023-02-01T13:31:52;5.73;;;2.47;;
3343;SDS011;1685;53.104;8.228;2023-02-01T13:37:50;7.57;;;1.40;;
3343;SDS011;1685;53.104;8.228;2023-02-01T13:40:33;6.40;;;1.73;;
3343;SDS011;1685;53.104;8.228;2023-02-01T13:43:07;6.30;;;1.50;;
3343;SDS011;1685;53.104;8.228;2023-02-01T13:45:42;13.13;;;2.53;;
3343;SDS011;1685;53.104;8.228;2023-02-01T13:48:18;6.13;;;2.00;;
3343;SDS011;1685;53.104;8.228;2023-02-01T13:50:49;9.63;;;2.30;;
3343;SDS011;1685;53.104;8.228;2023-02-01T13:53:21;10.57;;;3.10;;
3343;SDS011;1685;53.104;8.228;2023-02-01T13:55:54;12.20;;;3.97;;
3343;SDS011;1685;53.104;8.228;2023-02-01T13:58:30;12.07;;;2.93;;
3343;SDS011;1685;53.104;8.228;2023-02-01T14:04:01;13.03;;;2.80;;
3343;SDS011;1685;53.104;8.228;2023-02-01T14:06:38;13.57;;;3.93;;
3343;SDS011;1685;53.104;8.228;2023-02-01T14:09:12;13.50;;;2.83;;
3343;SDS011;1685;53.104;8.228;2023-02-01T14:11:46;18.50;;;3.57;;
3343;SDS011;1685;53.104;8.228;2023-02-01T14:23:27;18.10;;;3.50;;
3343;SDS011;1685;53.104;8.228;2023-02-01T14:28:56;23.63;;;4.00;;
3343;SDS011;1685;53.104;8.228;2023-02-01T14:31:35;26.77;;;4.93;;
3343;SDS011;1685;53.104;8.228;2023-02-01T14:34:11;34.60;;;4.80;;
3343;SDS011;1685;53.104;8.228;2023-02-01T14:36:43;12.23;;;4.10;;
3343;SDS011;1685;53.104;8.228;2023-02-01T14:39:19;31.87;;;4.00;;
3343;SDS011;1685;53.104;8.228;2023-02-01T14:41:51;25.33;;;4.00;;
3343;SDS011;1685;53.104;8.228;2023-02-01T14:44:31;21.53;;;4.57;;
3343;SDS011;1685;53.104;8.228;2023-02-01T14:47:05;21.70;;;3.57;;
3343;SDS011;1685;53.104;8.228;2023-02-01T14:49:35;23.90;;;4.40;;
3343;SDS011;1685;53.104;8.228;2023-02-01T14:52:08;30.57;;;5.20;;
3343;SDS011;1685;53.104;8.228;2023-02-01T14:54:39;33.23;;;5.97;;
3343;SDS011;1685;53.104;8.228;2023-02-01T14:57:09;29.57;;;5.30;;
3343;SDS011;1685;53.104;8.228;2023-02-01T14:59:42;21.53;;;5.40;;
3343;SDS011;1685;53.104;8.228;2023-02-01T15:02:16;19.20;;;4.53;;
3343;SDS011;1685;53.104;8.228;2023-02-01T15:04:47;23.47;;;4.97;;
3343;SDS011;1685;53.104;8.228;2023-02-01T15:07:21;38.20;;;5.57;;
3343;SDS011;1685;53.104;8.228;2023-02-01T15:09:49;24.60;;;7.20;;
3343;SDS011;1685;53.104;8.228;2023-02-01T15:12:18;21.97;;;6.17;;
3343;SDS011;1685;53.104;8.228;2023-02-01T15:15:03;30.37;;;5.13;;
3343;SDS011;1685;53.104;8.228;2023-02-01T15:17:37;23.87;;;4.10;;
3343;SDS011;1685;53.104;8.228;2023-02-01T15:20:12;28.67;;;5.37;;
3343;SDS011;1685;53.104;8.228;2023-02-01T15:22:41;18.90;;;3.77;;
3343;SDS011;1685;53.104;8.228;2023-02-01T15:25:18;23.60;;;3.50;;
3343;SDS011;1685;53.104;8.228;2023-02-01T15:27:46;15.43;;;3.70;;
3343;SDS011;1685;53.104;8.228;2023-02-01T15:30:16;16.90;;;3.20;;
3343;SDS011;1685;53.104;8.228;2023-02-01T15:32:46;17.20;;;3.50;;
3343;SDS011;1685;53.104;8.228;2023-02-01T15:38:20;15.53;;;4.00;;
3343;SDS011;1685;53.104;8.228;2023-02-01T15:41:02;32.07;;;5.50;;
3343;SDS011;1685;53.104;8.228;2023-02-01T15:43:33;35.00;;;4.90;;
3343;SDS011;1685;53.104;8.228;2023-02-01T15:46:02;30.70;;;5.40;;
3343;SDS011;1685;53.104;8.228;2023-02-01T15:48:38;31.37;;;4.97;;